Time;durP1;ratioP1;P1;durP2;ratioP2;P2;SDS_P1;SDS_P2;PMS_P1;PMS_P2;Temp;Humidity;BMP_temperature;BMP_pressure;BME280_temperature;BME280_humidity;BME280_pressure;Samples;Min_cycle;Max_cycle;Signal;HPM_P1;HPM_P2
2022/08/10 00:01:24;;;;;;;3.28;1.60;;;18.30;96.90;;;;;;5052366;28;20182;-86
2022/08/10 00:03:50;;;;;;;3.60;1.70;;;18.30;97.10;;;;;;5052631;28;20720;-86
2022/08/10 00:06:16;;;;;;;3.00;1.42;;;18.10;97.60;;;;;;5034485;28;20285;-85
2022/08/10 00:08:43;;;;;;;6.93;1.80;;;18.20;97.50;;;;;;5052304;28;20392;-86
2022/08/10 00:11:08;;;;;;;2.33;1.40;;;18.20;97.50;;;;;;5033949;28;20260;-86
2022/08/10 00:13:35;;;;;;;2.40;1.42;;;18.10;97.80;;;;;;5034244;28;20166;-86
2022/08/10 00:16:01;;;;;;;2.13;1.50;;;18.10;97.80;;;;;;5034502;28;20236;-86
2022/08/10 00:18:27;;;;;;;3.67;1.92;;;18.10;97.90;;;;;;5033898;28;20198;-86
2022/08/10 00:20:53;;;;;;;2.03;1.40;;;18.00;98.20;;;;;;5033962;28;20612;-86
2022/08/10 00:23:19;;;;;;;2.95;1.80;;;18.00;98.10;;;;;;5052024;28;20166;-86
2022/08/10 00:25:45;;;;;;;5.68;1.70;;;17.90;98.30;;;;;;5034515;28;20166;-85
2022/08/10 00:28:11;;;;;;;2.65;1.40;;;18.00;98.20;;;;;;5034167;28;20196;-86
2022/08/10 00:30:37;;;;;;;2.15;1.50;;;18.00;98.40;;;;;;5052085;28;20536;-86
2022/08/10 00:33:03;;;;;;;2.45;1.40;;;17.90;98.60;;;;;;5051223;28;20189;-86
2022/08/10 00:35:29;;;;;;;8.18;1.73;;;17.90;98.80;;;;;;5034029;28;20170;-85
2022/08/10 00:37:55;;;;;;;5.30;1.40;;;17.90;98.60;;;;;;5033584;28;20253;-86
2022/08/10 00:40:22;;;;;;;3.20;1.83;;;17.90;98.80;;;;;;5051921;28;20229;-86
2022/08/10 00:42:47;;;;;;;6.45;1.90;;;17.80;98.80;;;;;;5050616;28;20303;-86
2022/08/10 00:45:13;;;;;;;2.75;1.50;;;17.80;99.00;;;;;;5033553;28;20248;-86
2022/08/10 00:47:39;;;;;;;4.28;1.85;;;17.70;98.80;;;;;;5033665;28;20170;-86
2022/08/10 00:50:06;;;;;;;2.17;1.40;;;17.70;98.90;;;;;;5033640;28;20259;-86
2022/08/10 00:52:33;;;;;;;3.47;1.70;;;17.70;99.00;;;;;;5033654;28;20181;-86
2022/08/10 00:55:01;;;;;;;3.40;1.40;;;17.70;98.90;;;;;;5033751;28;20257;-86
2022/08/10 00:59:57;;;;;;;3.15;1.73;;;17.70;98.90;;;;;;5014049;28;20297;-85
2022/08/10 01:02:22;;;;;;;2.55;1.60;;;17.60;98.80;;;;;;5025400;28;20187;-84
2022/08/10 01:04:48;;;;;;;3.03;1.48;;;17.60;98.80;;;;;;5017523;28;20213;-86
2022/08/10 01:07:20;;;;;;;2.55;1.75;;;17.60;98.80;;;;;;5017555;28;20183;-86
2022/08/10 01:10:11;;;;;;;3.13;1.50;;;17.60;99.10;;;;;;5017805;28;20214;-87
2022/08/10 01:13:04;;;;;;;1.98;1.35;;;17.60;99.00;;;;;;5018116;28;20179;-85
2022/08/10 01:15:39;;;;;;;2.97;1.40;;;17.50;99.20;;;;;;5017258;28;20244;-86
2022/08/10 01:18:12;;;;;;;2.03;1.73;;;17.40;99.30;;;;;;5017441;28;20485;-87
2022/08/10 01:20:47;;;;;;;3.20;1.60;;;17.40;99.70;;;;;;5035250;28;20178;-87
2022/08/10 01:23:33;;;;;;;2.28;1.55;;;17.30;99.90;;;;;;5035356;28;20173;-86
2022/08/10 01:26:26;;;;;;;3.65;1.60;;;17.30;99.90;;;;;;5034493;28;20273;-86
2022/08/10 01:29:15;;;;;;;4.50;1.60;;;17.30;99.90;;;;;;5016580;28;20229;-86
2022/08/10 01:31:44;;;;;;;8.25;1.40;;;17.10;99.90;;;;;;5027695;28;20190;-88
2022/08/10 01:34:15;;;;;;;1.95;1.27;;;17.10;99.90;;;;;;5017289;28;20240;-87
2022/08/10 01:36:54;;;;;;;2.47;1.70;;;17.10;99.90;;;;;;5016970;28;20167;-86
2022/08/10 01:39:27;;;;;;;7.95;2.10;;;17.00;99.90;;;;;;5017041;28;20185;-87
2022/08/10 01:42:00;;;;;;;3.08;1.33;;;16.90;99.90;;;;;;5017139;28;20179;-87
2022/08/10 01:44:35;;;;;;;3.75;1.63;;;16.90;99.90;;;;;;5016934;28;20167;-87
2022/08/10 01:50:24;;;;;;;5.30;1.70;;;16.70;99.90;;;;;;5034077;28;20217;-87
2022/08/10 01:52:51;;;;;;;2.95;1.60;;;16.70;99.90;;;;;;5013773;28;20201;-88
2022/08/10 01:55:18;;;;;;;2.90;1.52;;;16.70;99.90;;;;;;5017066;28;20232;-87
2022/08/10 01:57:46;;;;;;;2.30;1.90;;;16.60;99.90;;;;;;5016926;28;20621;-85
2022/08/10 02:00:13;;;;;;;3.92;1.80;;;16.60;99.90;;;;;;5016889;28;20241;-87
2022/08/10 02:02:41;;;;;;;2.42;1.50;;;16.50;99.90;;;;;;5016676;28;20682;-87
2022/08/10 02:05:08;;;;;;;3.55;1.80;;;16.40;99.90;;;;;;5019170;28;20190;-87
2022/08/10 02:07:36;;;;;;;3.10;2.00;;;16.40;99.90;;;;;;5033714;28;20621;-86
2022/08/10 02:10:07;;;;;;;2.40;1.55;;;16.40;99.90;;;;;;5033960;28;20647;-86
2022/08/10 02:12:35;;;;;;;3.45;1.75;;;16.40;99.90;;;;;;5034226;28;20184;-88
2022/08/10 02:15:09;;;;;;;3.63;1.67;;;16.40;99.90;;;;;;5020407;28;20244;-87
2022/08/10 02:17:38;;;;;;;5.53;1.90;;;16.40;99.90;;;;;;5033822;28;20182;-87
2022/08/10 02:20:11;;;;;;;1.65;1.55;;;16.40;99.90;;;;;;5033771;28;20203;-86
2022/08/10 02:22:39;;;;;;;2.78;1.92;;;16.30;99.90;;;;;;5024666;28;20193;-87
2022/08/10 02:25:07;;;;;;;4.03;2.00;;;16.20;99.90;;;;;;5018136;28;20189;-87
2022/08/10 02:27:34;;;;;;;3.70;1.70;;;16.20;99.90;;;;;;5019266;28;20217;-86
2022/08/10 02:30:03;;;;;;;5.80;2.20;;;16.00;99.90;;;;;;5016177;28;20686;-87
2022/08/10 02:32:32;;;;;;;2.28;1.75;;;16.10;99.90;;;;;;5033800;28;20186;-86
2022/08/10 02:34:59;;;;;;;4.03;1.80;;;16.00;99.90;;;;;;5015658;28;20182;-86
2022/08/10 02:37:26;;;;;;;3.17;1.80;;;16.00;99.90;;;;;;5033695;28;20185;-87
2022/08/10 02:39:53;;;;;;;4.03;1.83;;;16.00;99.90;;;;;;5015792;28;20571;-86
2022/08/10 02:42:47;;;;;;;3.15;1.92;;;16.00;99.90;;;;;;5016248;28;20239;-88
2022/08/10 02:45:41;;;;;;;3.42;1.95;;;16.00;99.90;;;;;;4981596;28;20201;-87
2022/08/10 02:48:20;;;;;;;3.80;1.75;;;16.00;99.90;;;;;;5016238;28;20256;-86
2022/08/10 02:50:55;;;;;;;4.75;1.88;;;16.00;99.90;;;;;;5016325;28;20204;-87
2022/08/10 02:53:27;;;;;;;2.28;1.80;;;15.90;99.90;;;;;;5015783;28;20575;-87
2022/08/10 02:56:05;;;;;;;6.00;2.00;;;15.90;99.90;;;;;;5033386;28;20205;-86
2022/08/10 02:58:39;;;;;;;3.55;2.15;;;15.80;99.90;;;;;;5016149;28;20280;-87
2022/08/10 03:01:10;;;;;;;2.28;1.80;;;15.70;99.90;;;;;;5033413;28;20652;-86
2022/08/10 03:04:03;;;;;;;5.90;2.00;;;15.70;99.90;;;;;;5028575;28;20190;-87
2022/08/10 03:06:38;;;;;;;5.63;2.03;;;15.60;99.90;;;;;;5029687;28;20182;-87
2022/08/10 03:09:07;;;;;;;4.82;2.47;;;15.60;99.90;;;;;;5040001;28;20235;-86
2022/08/10 03:11:36;;;;;;;6.07;1.83;;;15.50;99.90;;;;;;5028321;28;20221;-86
2022/08/10 03:14:04;;;;;;;3.25;1.90;;;15.50;99.90;;;;;;5019792;28;20213;-87
2022/08/10 03:16:31;;;;;;;3.90;2.00;;;15.50;99.90;;;;;;5019687;28;20199;-87
2022/08/10 03:19:00;;;;;;;3.78;1.95;;;15.40;99.90;;;;;;5037071;28;20182;-87
2022/08/10 03:21:27;;;;;;;3.38;1.90;;;15.30;99.90;;;;;;5024276;28;20210;-87
2022/08/10 03:23:56;;;;;;;5.68;1.98;;;15.30;99.90;;;;;;5019346;28;20194;-86
2022/08/10 03:26:22;;;;;;;3.50;1.95;;;15.30;99.90;;;;;;5022201;28;20214;-87
2022/08/10 03:28:48;;;;;;;2.13;1.90;;;15.30;99.90;;;;;;5021571;28;20215;-87
2022/08/10 03:31:14;;;;;;;3.78;1.63;;;15.30;99.90;;;;;;5023761;28;20190;-87
2022/08/10 03:33:42;;;;;;;2.90;1.92;;;15.30;99.90;;;;;;5036812;28;20187;-87
2022/08/10 03:36:08;;;;;;;3.40;2.00;;;15.30;99.90;;;;;;5020914;28;20217;-88
2022/08/10 03:38:34;;;;;;;3.10;1.80;;;15.20;99.90;;;;;;5020130;28;20193;-87
2022/08/10 03:41:07;;;;;;;2.10;1.85;;;15.20;99.90;;;;;;5037056;28;20187;-86
2022/08/10 03:43:34;;;;;;;2.42;1.75;;;15.10;99.90;;;;;;5018827;28;20182;-87
2022/08/10 03:46:04;;;;;;;2.95;2.17;;;15.20;99.90;;;;;;5019385;28;20190;-87
2022/08/10 03:48:33;;;;;;;4.13;2.05;;;15.20;99.90;;;;;;5036538;28;20265;-87
2022/08/10 03:51:00;;;;;;;1.98;1.50;;;15.20;99.90;;;;;;5036882;28;20182;-87
2022/08/10 03:53:34;;;;;;;2.70;1.80;;;15.20;99.90;;;;;;5036688;28;20504;-87
2022/08/10 03:56:00;;;;;;;2.88;1.80;;;15.10;99.90;;;;;;5036491;28;20174;-86
2022/08/10 03:58:26;;;;;;;3.85;2.17;;;15.00;99.90;;;;;;5024045;28;20230;-86
2022/08/10 04:00:53;;;;;;;3.13;1.92;;;15.00;99.90;;;;;;5025872;28;20197;-86
2022/08/10 04:03:19;;;;;;;3.17;2.00;;;15.10;99.90;;;;;;5018662;28;20193;-87
2022/08/10 04:05:45;;;;;;;4.68;2.10;;;15.10;99.90;;;;;;5021243;28;20198;-87
2022/08/10 04:08:12;;;;;;;2.83;1.85;;;15.10;99.90;;;;;;5036019;28;20191;-86
2022/08/10 04:10:38;;;;;;;3.50;2.00;;;15.10;99.90;;;;;;5027000;28;20214;-87
2022/08/10 04:13:03;;;;;;;3.03;1.80;;;14.90;99.90;;;;;;5035997;28;20193;-86
2022/08/10 04:15:29;;;;;;;2.20;1.70;;;14.90;99.90;;;;;;5019017;28;20634;-87
2022/08/10 04:17:55;;;;;;;2.58;1.80;;;15.00;99.90;;;;;;5018610;28;20190;-87
2022/08/10 04:20:34;;;;;;;2.42;1.75;;;15.00;99.90;;;;;;5026805;28;20193;-87
2022/08/10 04:23:07;;;;;;;4.07;1.95;;;15.00;99.90;;;;;;5018474;28;20190;-87
2022/08/10 04:25:34;;;;;;;3.33;1.90;;;14.90;99.90;;;;;;5018318;28;20587;-86
2022/08/10 04:28:00;;;;;;;2.63;2.10;;;15.00;99.90;;;;;;5030139;28;20226;-87
2022/08/10 04:30:28;;;;;;;3.30;1.95;;;15.00;99.90;;;;;;5024669;28;20234;-87
2022/08/10 04:32:55;;;;;;;4.13;2.00;;;15.00;99.90;;;;;;5018733;28;20228;-87
2022/08/10 04:35:22;;;;;;;5.07;1.98;;;15.00;99.90;;;;;;5032426;28;20574;-88
2022/08/10 04:37:50;;;;;;;1.90;1.58;;;15.10;99.90;;;;;;5018195;28;20239;-87
2022/08/10 04:40:16;;;;;;;2.35;1.80;;;15.10;99.90;;;;;;5035794;28;20193;-86
2022/08/10 04:42:42;;;;;;;2.03;1.80;;;15.10;99.90;;;;;;5023549;28;20651;-87
2022/08/10 04:45:10;;;;;;;3.25;1.80;;;15.10;99.90;;;;;;5035098;28;20265;-89
2022/08/10 04:47:37;;;;;;;2.67;2.28;;;15.10;99.90;;;;;;5029930;28;20617;-88
2022/08/10 04:50:03;;;;;;;5.30;2.00;;;15.10;99.90;;;;;;5034895;28;20225;-87
2022/08/10 04:52:29;;;;;;;3.92;2.03;;;15.10;99.90;;;;;;5036320;28;20186;-88
2022/08/10 04:54:55;;;;;;;2.25;1.98;;;15.10;99.90;;;;;;5035966;28;20178;-89
2022/08/10 04:57:21;;;;;;;2.78;1.98;;;15.10;99.90;;;;;;5019717;28;20265;-88
2022/08/10 04:59:47;;;;;;;4.70;2.40;;;15.10;99.90;;;;;;5035708;28;20690;-89
2022/08/10 05:02:13;;;;;;;4.43;2.28;;;15.10;99.90;;;;;;5035898;28;20182;-89
2022/08/10 05:04:45;;;;;;;4.07;2.40;;;15.10;99.90;;;;;;5026719;28;20620;-88
2022/08/10 05:07:13;;;;;;;3.25;2.50;;;15.10;99.90;;;;;;5035860;28;20708;-88
2022/08/10 05:09:40;;;;;;;3.28;2.17;;;15.10;99.90;;;;;;5019562;28;20268;-89
2022/08/10 05:12:06;;;;;;;2.20;2.00;;;15.20;99.90;;;;;;5018231;28;20179;-88
2022/08/10 05:14:32;;;;;;;4.50;2.30;;;15.20;99.90;;;;;;5031594;28;20193;-87
2022/08/10 05:16:58;;;;;;;3.20;2.15;;;15.30;99.90;;;;;;5020657;28;20183;-89
2022/08/10 05:19:25;;;;;;;3.97;2.20;;;15.30;99.90;;;;;;5023581;28;20281;-87
2022/08/10 05:21:51;;;;;;;3.83;1.92;;;15.30;99.90;;;;;;5024441;28;20533;-87
2022/08/10 05:24:19;;;;;;;2.90;1.85;;;15.40;99.90;;;;;;5017193;28;20641;-87
2022/08/10 05:26:44;;;;;;;3.08;2.20;;;15.50;99.90;;;;;;5017871;28;20208;-88
2022/08/10 05:29:10;;;;;;;4.95;2.28;;;15.60;99.90;;;;;;5017322;28;20236;-89
2022/08/10 05:31:36;;;;;;;8.40;2.75;;;15.60;99.90;;;;;;5017760;28;20191;-87
2022/08/10 05:34:05;;;;;;;4.90;2.42;;;15.60;99.90;;;;;;5017301;28;20525;-87
2022/08/10 05:36:32;;;;;;;8.55;2.67;;;15.60;99.90;;;;;;5022557;28;20190;-88
2022/08/10 05:38:59;;;;;;;11.18;2.40;;;15.70;99.90;;;;;;5033744;28;20256;-87
2022/08/10 05:41:27;;;;;;;6.53;1.95;;;15.80;99.90;;;;;;5033903;28;20171;-87
2022/08/10 05:43:55;;;;;;;8.05;2.72;;;15.90;99.90;;;;;;5030510;28;20260;-87
2022/08/10 05:46:21;;;;;;;4.90;2.40;;;15.90;99.90;;;;;;5016846;28;20163;-88
2022/08/10 05:48:48;;;;;;;6.43;2.47;;;16.00;99.90;;;;;;5017088;28;20206;-87
2022/08/10 05:51:15;;;;;;;5.70;2.45;;;16.00;99.90;;;;;;5016964;28;20216;-88
2022/08/10 05:53:41;;;;;;;7.57;2.20;;;16.10;99.90;;;;;;5016954;28;20493;-88
2022/08/10 05:56:08;;;;;;;6.18;2.25;;;16.10;99.90;;;;;;5034853;28;20253;-88
2022/08/10 05:58:37;;;;;;;7.30;2.40;;;16.20;99.90;;;;;;5032956;28;20246;-88
2022/08/10 06:01:09;;;;;;;5.50;2.00;;;16.20;99.90;;;;;;5016492;28;20179;-89
2022/08/10 06:03:52;;;;;;;3.85;2.00;;;16.30;99.90;;;;;;5013648;28;20258;-88
2022/08/10 06:06:20;;;;;;;3.70;2.30;;;16.40;99.90;;;;;;4997324;28;20175;-89
2022/08/10 06:08:48;;;;;;;4.00;2.28;;;16.40;99.90;;;;;;4997141;28;20261;-88
2022/08/10 06:11:14;;;;;;;4.90;2.28;;;16.50;99.90;;;;;;4997356;28;20179;-87
2022/08/10 06:16:31;;;;;;;6.70;2.20;;;16.60;99.90;;;;;;5015253;28;20174;-88
2022/08/10 06:18:58;;;;;;;3.92;2.20;;;16.70;99.90;;;;;;4997434;28;20215;-88
2022/08/10 06:21:25;;;;;;;6.55;2.40;;;16.80;99.90;;;;;;5003944;28;20183;-91
2022/08/10 06:23:52;;;;;;;4.75;2.35;;;16.90;99.90;;;;;;5017154;28;20186;-88
2022/08/10 06:26:17;;;;;;;3.25;2.15;;;17.00;99.90;;;;;;5016772;28;20178;-86
2022/08/10 06:28:49;;;;;;;7.97;2.35;;;17.00;99.90;;;;;;5034778;28;20182;-88
2022/08/10 06:31:18;;;;;;;2.53;2.05;;;17.10;99.90;;;;;;5017052;28;20297;-89
2022/08/10 06:33:47;;;;;;;6.60;2.60;;;17.20;99.90;;;;;;5017212;28;20635;-89
2022/08/10 06:36:14;;;;;;;5.53;2.22;;;17.30;99.90;;;;;;5017917;28;20179;-86
2022/08/10 06:38:44;;;;;;;4.45;2.20;;;17.40;99.90;;;;;;5017260;28;20389;-92
2022/08/10 06:41:22;;;;;;;4.65;2.08;;;17.40;99.90;;;;;;5019534;28;20201;-90
2022/08/10 06:44:02;;;;;;;3.58;2.00;;;17.50;99.90;;;;;;5021185;28;20337;-91
2022/08/10 06:46:32;;;;;;;5.57;1.95;;;17.60;99.90;;;;;;5021123;28;20609;-91
2022/08/10 06:49:01;;;;;;;4.32;2.03;;;17.70;99.90;;;;;;5020458;28;20194;-91
2022/08/10 06:51:34;;;;;;;6.90;1.85;;;17.80;99.90;;;;;;5021314;28;20189;-87
2022/08/10 06:54:12;;;;;;;2.40;1.85;;;17.90;99.90;;;;;;5020563;28;20178;-90
2022/08/10 06:56:43;;;;;;;2.70;2.10;;;18.00;99.90;;;;;;5021403;28;20170;-91
2022/08/10 06:59:15;;;;;;;4.53;2.15;;;18.10;99.90;;;;;;5020908;28;20236;-92
2022/08/10 07:01:46;;;;;;;3.75;2.00;;;18.20;99.90;;;;;;5020719;28;20536;-86
2022/08/10 07:04:45;;;;;;;3.67;1.90;;;18.30;99.90;;;;;;5020707;28;20174;-89
2022/08/10 07:07:17;;;;;;;3.05;1.90;;;18.40;99.90;;;;;;5020574;28;20177;-90
2022/08/10 07:09:44;;;;;;;3.70;2.10;;;18.50;99.90;;;;;;5020121;28;20544;-90
2022/08/10 07:12:10;;;;;;;7.75;2.20;;;18.60;99.90;;;;;;5020482;28;20181;-88
2022/08/10 07:14:42;;;;;;;3.10;2.13;;;18.70;99.90;;;;;;5019951;28;20183;-86
2022/08/10 07:17:19;;;;;;;5.57;2.40;;;18.80;99.90;;;;;;5020580;28;20170;-87
2022/08/10 07:19:47;;;;;;;3.65;1.92;;;19.00;99.90;;;;;;5020042;28;20553;-89
2022/08/10 07:22:15;;;;;;;4.47;1.90;;;19.10;99.90;;;;;;5029615;28;20182;-90
2022/08/10 07:24:43;;;;;;;5.70;2.10;;;19.30;99.90;;;;;;5036653;28;20270;-94
2022/08/10 07:27:10;;;;;;;6.63;1.80;;;19.40;99.90;;;;;;5036428;28;20265;-88
2022/08/10 07:29:39;;;;;;;6.28;2.05;;;19.60;99.90;;;;;;5036592;28;20224;-86
2022/08/10 07:32:06;;;;;;;4.85;1.70;;;19.80;99.90;;;;;;5037656;28;20265;-86
2022/08/10 07:34:35;;;;;;;3.28;1.77;;;20.00;99.90;;;;;;5026053;28;20237;-86
2022/08/10 07:37:04;;;;;;;7.78;1.98;;;20.10;99.80;;;;;;5020201;28;20197;-88
2022/08/10 07:39:34;;;;;;;4.70;2.00;;;20.30;99.70;;;;;;5019902;28;20178;-86
2022/08/10 07:42:01;;;;;;;3.55;1.88;;;20.40;98.80;;;;;;5019465;28;20174;-89
2022/08/10 07:44:30;;;;;;;4.50;2.10;;;20.50;98.50;;;;;;5019330;28;20181;-88
2022/08/10 07:46:59;;;;;;;4.15;1.67;;;20.70;98.50;;;;;;5019448;28;20591;-90
2022/08/10 07:49:29;;;;;;;5.38;1.70;;;20.80;98.30;;;;;;5018843;28;20217;-87
2022/08/10 07:51:57;;;;;;;4.65;1.90;;;20.90;98.00;;;;;;5018782;28;20181;-87
2022/08/10 07:54:26;;;;;;;4.03;2.00;;;21.00;97.80;;;;;;5019157;28;20613;-87
2022/08/10 07:56:58;;;;;;;6.38;2.00;;;21.20;97.20;;;;;;5019573;28;20170;-87
2022/08/10 07:59:37;;;;;;;4.80;1.90;;;21.30;97.30;;;;;;5018969;28;20665;-86
2022/08/10 08:02:06;;;;;;;7.22;1.95;;;21.40;97.70;;;;;;5019814;28;20190;-88
2022/08/10 08:04:32;;;;;;;2.92;1.65;;;21.40;96.30;;;;;;5019472;28;20266;-92
2022/08/10 08:07:03;;;;;;;6.57;1.83;;;21.60;96.20;;;;;;5019278;28;20173;-84
2022/08/10 08:09:30;;;;;;;2.25;1.80;;;21.60;96.30;;;;;;5019159;28;20203;-88
2022/08/10 08:11:57;;;;;;;4.13;1.60;;;21.70;95.70;;;;;;5019092;28;20526;-89
2022/08/10 08:14:25;;;;;;;3.75;1.75;;;21.90;96.40;;;;;;5019114;28;20178;-89
2022/08/10 08:16:53;;;;;;;7.22;1.85;;;21.90;95.50;;;;;;5019098;28;20237;-88
2022/08/10 08:19:19;;;;;;;3.38;1.65;;;22.10;95.10;;;;;;5018642;28;20183;-89
2022/08/10 08:21:46;;;;;;;4.97;1.60;;;22.20;95.30;;;;;;5018578;28;20187;-87
2022/08/10 08:24:15;;;;;;;4.32;1.50;;;22.20;94.20;;;;;;5018693;28;20210;-89
2022/08/10 08:26:42;;;;;;;4.18;1.60;;;22.40;94.40;;;;;;5018839;28;20175;-92
2022/08/10 08:29:11;;;;;;;4.28;1.80;;;22.50;93.70;;;;;;5018771;28;20263;-91
2022/08/10 08:31:38;;;;;;;2.92;1.60;;;22.60;93.80;;;;;;5019358;28;20182;-88
2022/08/10 08:34:07;;;;;;;3.88;1.85;;;22.60;93.80;;;;;;5018525;28;20182;-92
2022/08/10 08:36:37;;;;;;;2.90;1.77;;;22.70;93.80;;;;;;5036920;28;20629;-88
2022/08/10 08:39:03;;;;;;;2.85;1.77;;;22.90;92.80;;;;;;5018931;28;20204;-89
2022/08/10 08:42:04;;;;;;;3.40;1.67;;;23.00;93.20;;;;;;5019177;28;21777;-94
2022/08/10 08:44:52;;;;;;;3.30;2.08;;;23.10;92.80;;;;;;5018962;28;20621;-87
2022/08/10 08:47:41;;;;;;;4.95;1.60;;;23.20;92.20;;;;;;5018290;28;20285;-91
2022/08/10 08:50:34;;;;;;;3.05;1.58;;;23.20;92.20;;;;;;5018413;28;20241;-91
2022/08/10 08:53:20;;;;;;;3.60;1.25;;;23.30;92.10;;;;;;5018901;28;20182;-89
2022/08/10 08:56:05;;;;;;;4.95;1.35;;;23.40;92.10;;;;;;5019932;28;20167;-94
2022/08/10 08:59:02;;;;;;;7.25;1.58;;;23.50;91.50;;;;;;5019096;28;20238;-90
2022/08/10 09:02:10;;;;;;;3.90;1.38;;;23.50;91.00;;;;;;5018436;28;20237;-88
2022/08/10 09:05:25;;;;;;;2.75;1.50;;;23.70;90.90;;;;;;5018305;28;20174;-91
2022/08/10 09:08:35;;;;;;;3.72;1.20;;;23.70;90.60;;;;;;5019104;28;20181;-89
2022/08/10 09:11:20;;;;;;;3.63;1.45;;;23.90;91.00;;;;;;4998888;28;20206;-88
2022/08/10 09:14:08;;;;;;;4.13;1.40;;;24.00;90.30;;;;;;5018644;28;20221;-87
2022/08/10 09:16:56;;;;;;;1.90;1.08;;;24.00;90.10;;;;;;5018690;28;20174;-87
2022/08/10 09:19:48;;;;;;;2.33;1.20;;;24.10;88.60;;;;;;5018441;28;20517;-90
2022/08/10 09:22:30;;;;;;;4.55;1.30;;;24.20;90.20;;;;;;5027611;28;20621;-90
2022/08/10 09:25:19;;;;;;;4.50;1.23;;;24.30;88.90;;;;;;5018506;28;20182;-93
2022/08/10 09:27:47;;;;;;;2.00;1.20;;;24.40;87.80;;;;;;5018686;28;20179;-90
2022/08/10 09:30:29;;;;;;;4.25;1.02;;;24.50;88.00;;;;;;5018131;28;20649;-90
2022/08/10 09:33:08;;;;;;;3.70;1.40;;;24.60;88.30;;;;;;5018406;28;20209;-91
2022/08/10 09:35:53;;;;;;;3.17;1.10;;;24.80;86.50;;;;;;5018623;28;20178;-89
2022/08/10 09:38:41;;;;;;;4.03;1.25;;;24.80;84.20;;;;;;5017531;28;20178;-92
2022/08/10 09:41:31;;;;;;;3.10;1.60;;;24.80;85.00;;;;;;5018378;28;20174;-91
2022/08/10 09:44:05;;;;;;;2.15;1.00;;;24.90;86.20;;;;;;5017794;28;20389;-86
2022/08/10 09:46:51;;;;;;;3.22;1.30;;;25.00;83.50;;;;;;5017895;28;20177;-87
2022/08/10 09:49:30;;;;;;;1.95;1.10;;;25.00;83.40;;;;;;5017903;28;20706;-93
2022/08/10 09:52:19;;;;;;;2.80;1.10;;;25.10;82.90;;;;;;5018576;28;20198;-93
2022/08/10 09:55:47;;;;;;;2.30;0.95;;;25.10;84.10;;;;;;5018201;28;20188;-91
2022/08/10 09:58:33;;;;;;;2.38;1.17;;;25.30;83.70;;;;;;4993923;28;20282;-91
2022/08/10 10:01:12;;;;;;;5.80;1.20;;;25.30;82.30;;;;;;4993338;28;20187;-88
2022/08/10 10:03:54;;;;;;;3.28;1.30;;;25.30;81.30;;;;;;5002493;28;20532;-88
2022/08/10 10:06:50;;;;;;;10.98;1.40;;;25.40;81.70;;;;;;5013812;28;20744;-89
2022/08/10 10:09:30;;;;;;;2.92;1.05;;;25.40;82.30;;;;;;5026064;28;20207;-93
2022/08/10 10:12:06;;;;;;;4.32;1.10;;;25.40;81.40;;;;;;5017294;28;20233;-87
2022/08/10 10:15:19;;;;;;;1.85;1.00;;;25.50;82.40;;;;;;5017515;28;20239;-91
2022/08/10 10:18:04;;;;;;;2.25;1.00;;;25.60;81.20;;;;;;5019254;28;20155;-92
2022/08/10 10:20:56;;;;;;;2.97;1.20;;;25.70;83.50;;;;;;5017448;28;20179;-91
2022/08/10 10:23:46;;;;;;;3.53;1.30;;;25.90;81.70;;;;;;4997604;28;20183;-89
2022/08/10 10:26:20;;;;;;;1.52;1.00;;;25.90;79.20;;;;;;4997785;28;20179;-89
2022/08/10 10:28:49;;;;;;;2.08;1.00;;;26.00;80.90;;;;;;4997443;28;20171;-91
2022/08/10 10:31:25;;;;;;;2.95;0.93;;;26.00;80.40;;;;;;4997906;28;20183;-93
2022/08/10 10:34:26;;;;;;;2.03;1.02;;;26.10;77.50;;;;;;4997590;28;20639;-89
2022/08/10 10:36:52;;;;;;;2.97;1.42;;;26.20;75.80;;;;;;5018290;28;20174;-91
2022/08/10 10:39:23;;;;;;;2.45;1.17;;;26.10;78.20;;;;;;5033659;28;20179;-87
2022/08/10 10:41:57;;;;;;;2.50;1.00;;;26.10;79.40;;;;;;5016655;28;20220;-91
2022/08/10 10:44:55;;;;;;;4.60;1.30;;;26.20;79.20;;;;;;5016884;28;20273;-91
2022/08/10 10:47:52;;;;;;;2.75;1.00;;;26.20;78.30;;;;;;5034615;28;20687;-90
2022/08/10 10:50:45;;;;;;;2.88;1.10;;;26.40;78.40;;;;;;5010401;28;20210;-89
2022/08/10 10:53:38;;;;;;;1.40;0.95;;;26.40;78.40;;;;;;5016414;28;20178;-89
2022/08/10 10:56:43;;;;;;;2.72;1.15;;;26.50;78.30;;;;;;5034661;28;20195;-90
2022/08/10 10:59:48;;;;;;;1.55;0.90;;;26.70;80.70;;;;;;5017085;28;20230;-89
2022/08/10 11:02:25;;;;;;;1.35;0.70;;;26.80;77.90;;;;;;5016303;28;20173;-90
2022/08/10 11:05:16;;;;;;;1.50;0.80;;;27.00;76.10;;;;;;5016481;28;20636;-90
2022/08/10 11:08:01;;;;;;;1.67;1.00;;;27.00;76.60;;;;;;5017284;28;20175;-91
2022/08/10 11:10:48;;;;;;;1.15;0.82;;;27.00;77.80;;;;;;5016829;28;20210;-91
2022/08/10 11:13:23;;;;;;;2.40;1.00;;;27.00;77.30;;;;;;5017124;28;20502;-91
2022/08/10 11:16:10;;;;;;;1.70;1.10;;;27.00;76.70;;;;;;5016133;28;20597;-92
2022/08/10 11:18:56;;;;;;;3.15;1.20;;;27.00;76.50;;;;;;5017131;28;20619;-87
2022/08/10 11:21:50;;;;;;;4.53;1.33;;;27.10;77.00;;;;;;5016173;28;20170;-88
2022/08/10 11:24:29;;;;;;;2.25;0.90;;;26.90;75.70;;;;;;5016684;28;20175;-90
2022/08/10 11:27:29;;;;;;;2.83;1.10;;;26.90;76.80;;;;;;5036608;28;20159;-93
2022/08/10 11:30:06;;;;;;;4.90;1.23;;;27.00;76.60;;;;;;5016720;28;20226;-88
2022/08/10 11:32:40;;;;;;;5.03;1.40;;;27.20;77.10;;;;;;5020345;28;20197;-89
2022/08/10 11:35:26;;;;;;;2.20;1.30;;;27.40;76.90;;;;;;5019882;28;20197;-90
2022/08/10 11:38:07;;;;;;;2.85;0.90;;;27.60;76.70;;;;;;5019912;28;20558;-88
2022/08/10 11:40:41;;;;;;;1.92;0.98;;;27.70;74.60;;;;;;5020214;28;20632;-86
2022/08/10 11:43:22;;;;;;;3.67;1.40;;;27.80;75.90;;;;;;5019553;28;20181;-89
2022/08/10 11:46:03;;;;;;;2.58;1.20;;;27.80;75.60;;;;;;5019983;28;20223;-87
2022/08/10 11:48:45;;;;;;;2.63;1.00;;;27.50;75.60;;;;;;5029345;28;20186;-88
2022/08/10 11:51:21;;;;;;;2.45;1.17;;;27.60;77.20;;;;;;5027570;28;20214;-87
2022/08/10 11:54:04;;;;;;;2.83;1.30;;;27.70;76.90;;;;;;5019457;28;20189;-86
2022/08/10 11:56:40;;;;;;;2.50;1.02;;;27.70;76.50;;;;;;5037537;28;20626;-89
2022/08/10 12:01:53;;;;;;;5.28;0.90;;;27.70;75.00;;;;;;5037142;28;20574;-88
2022/08/10 12:04:20;;;;;;;2.70;0.98;;;27.50;76.50;;;;;;5018945;28;20187;-90
2022/08/10 12:06:50;;;;;;;2.35;1.00;;;27.40;75.80;;;;;;5019196;28;20171;-89
2022/08/10 12:09:17;;;;;;;1.98;0.82;;;27.40;76.00;;;;;;5018834;28;20210;-88
2022/08/10 12:11:44;;;;;;;2.78;0.80;;;27.40;74.60;;;;;;5036447;28;20189;-87
2022/08/10 12:14:20;;;;;;;1.63;0.98;;;27.50;75.10;;;;;;5018263;28;20182;-88
2022/08/10 12:16:48;;;;;;;1.48;1.05;;;27.60;76.20;;;;;;5018884;28;20182;-86
2022/08/10 12:19:19;;;;;;;1.52;1.00;;;27.70;73.80;;;;;;5036844;28;20504;-90
2022/08/10 12:22:12;;;;;;;5.85;0.93;;;27.80;76.90;;;;;;5018401;28;20193;-89
2022/08/10 12:24:47;;;;;;;4.25;1.10;;;28.00;76.30;;;;;;5015276;28;20191;-89
2022/08/10 12:27:25;;;;;;;4.55;1.00;;;28.20;75.10;;;;;;5019111;28;20240;-87
2022/08/10 12:30:09;;;;;;;3.70;0.93;;;28.30;74.50;;;;;;5018934;28;20211;-86
2022/08/10 12:32:44;;;;;;;4.00;0.93;;;28.30;74.10;;;;;;5018331;28;20186;-91
2022/08/10 12:35:33;;;;;;;2.47;0.88;;;28.30;72.90;;;;;;5018175;28;20181;-90
2022/08/10 12:38:20;;;;;;;3.72;0.60;;;28.20;73.30;;;;;;5017127;28;20248;-88
2022/08/10 12:40:54;;;;;;;2.30;0.82;;;28.20;71.80;;;;;;5018087;28;20182;-90
2022/08/10 12:43:28;;;;;;;3.90;0.82;;;28.30;71.80;;;;;;5018543;28;20174;-87
2022/08/10 12:46:29;;;;;;;1.73;0.73;;;28.30;72.80;;;;;;5017943;28;20229;-85
2022/08/10 12:49:27;;;;;;;1.50;0.90;;;28.40;71.50;;;;;;5017820;28;20613;-89
2022/08/10 12:52:13;;;;;;;3.47;0.77;;;28.50;71.50;;;;;;5017791;28;20212;-90
2022/08/10 12:54:40;;;;;;;1.75;0.77;;;28.50;71.80;;;;;;5018199;28;20277;-89
2022/08/10 12:57:13;;;;;;;2.53;0.93;;;28.50;72.40;;;;;;5035871;28;20167;-86
2022/08/10 12:59:48;;;;;;;2.13;0.75;;;28.40;70.20;;;;;;5035272;28;20287;-87
2022/08/10 13:02:32;;;;;;;1.85;1.00;;;28.50;70.80;;;;;;5017715;28;20196;-86
2022/08/10 13:05:03;;;;;;;2.67;1.00;;;28.50;72.20;;;;;;5017769;28;20178;-87
2022/08/10 13:07:33;;;;;;;2.03;0.75;;;28.50;71.60;;;;;;5017871;28;20185;-87
2022/08/10 13:10:05;;;;;;;1.80;0.90;;;28.60;72.30;;;;;;5017755;28;20703;-92
2022/08/10 13:12:35;;;;;;;2.08;0.95;;;28.70;71.90;;;;;;5018372;28;20240;-89
2022/08/10 13:15:25;;;;;;;1.55;0.85;;;28.70;71.20;;;;;;5017908;28;20249;-87
2022/08/10 13:17:54;;;;;;;5.10;0.80;;;28.80;70.30;;;;;;5017756;28;20175;-90
2022/08/10 13:20:28;;;;;;;2.17;0.82;;;28.80;71.00;;;;;;5017869;28;20163;-91
2022/08/10 13:22:58;;;;;;;1.05;0.80;;;28.80;69.90;;;;;;5034933;28;20514;-88
2022/08/10 13:25:34;;;;;;;2.25;0.85;;;28.90;70.30;;;;;;5018197;28;20506;-83
2022/08/10 13:28:03;;;;;;;1.00;0.80;;;28.90;68.50;;;;;;5017155;28;20550;-85
2022/08/10 13:30:29;;;;;;;2.42;0.80;;;28.80;68.90;;;;;;5017233;28;20206;-89
2022/08/10 13:32:56;;;;;;;1.40;0.80;;;28.90;68.80;;;;;;5016797;28;20183;-86
2022/08/10 13:35:23;;;;;;;3.03;1.00;;;28.90;69.10;;;;;;5016329;28;20189;-85